createdAt,value
2022-08-10T00:00:00.146Z,102485.94
2022-08-10T00:02:45.738Z,102488.44
2022-08-10T00:05:43.159Z,102489.19
2022-08-10T00:08:36.917Z,102481.25
2022-08-10T00:11:22.552Z,102478.69
2022-08-10T00:14:07.978Z,102481.41
2022-08-10T00:16:53.168Z,102479.84
2022-08-10T00:20:03.017Z,102475.44
2022-08-10T00:22:53.017Z,102477.72
2022-08-10T00:25:44.926Z,102470.59
2022-08-10T00:28:31.430Z,102470.53
2022-08-10T00:31:16.847Z,102469.53
2022-08-10T00:34:02.963Z,102471.28
2022-08-10T00:36:48.442Z,102473.13
2022-08-10T00:39:36.320Z,102477.44
2022-08-10T00:42:24.859Z,102477.44
2022-08-10T00:45:10.696Z,102473.81
2022-08-10T00:47:56.332Z,102468.31
2022-08-10T00:50:42.004Z,102463.81
2022-08-10T00:53:28.624Z,102468.13
2022-08-10T00:57:15.648Z,102465.56
2022-08-10T00:59:19.927Z,102467.38
2022-08-10T01:02:11.098Z,102463.66
2022-08-10T01:05:20.701Z,102459.09
2022-08-10T01:08:31.686Z,102461.69
2022-08-10T01:12:40.049Z,102463.44
2022-08-10T01:14:45.523Z,102458.38
2022-08-10T01:17:52.512Z,102464.31
2022-08-10T01:20:48.094Z,102462.69
2022-08-10T01:24:01.485Z,102464.34
2022-08-10T01:27:00.134Z,102465.59
2022-08-10T01:29:56.709Z,102463.28
2022-08-10T01:33:31.679Z,102461.03
2022-08-10T01:36:32.223Z,102462.88
2022-08-10T01:39:28.109Z,102460.50
2022-08-10T01:42:16.970Z,102464.97
2022-08-10T01:45:05.271Z,102459.06
2022-08-10T01:48:16.546Z,102457.50
2022-08-10T01:51:17.717Z,102463.75
2022-08-10T01:54:12.179Z,102461.94
2022-08-10T01:57:02.116Z,102459.31
2022-08-10T01:59:54.766Z,102456.78
2022-08-10T02:02:52.869Z,102468.16
2022-08-10T02:05:43.782Z,102464.63
2022-08-10T02:08:32.718Z,102462.91
2022-08-10T02:11:20.223Z,102468.13
2022-08-10T02:14:07.359Z,102470.72
2022-08-10T02:16:53.851Z,102473.28
2022-08-10T02:19:41.838Z,102469.69
2022-08-10T02:22:36.276Z,102468.69
2022-08-10T02:25:41.034Z,102476.66
2022-08-10T02:28:34.727Z,102467.09
2022-08-10T02:31:24.683Z,102467.09
2022-08-10T02:34:14.424Z,102464.50
2022-08-10T02:37:04.015Z,102464.53
2022-08-10T02:39:57.198Z,102459.22
2022-08-10T02:45:23.960Z,102464.50
2022-08-10T02:46:34.482Z,102453.00
2022-08-10T02:49:29.370Z,102446.88
2022-08-10T02:52:21.032Z,102450.22
2022-08-10T02:55:17.323Z,102455.19
2022-08-10T02:58:13.861Z,102453.25
2022-08-10T03:01:06.841Z,102454.84
2022-08-10T03:03:59.236Z,102461.88
2022-08-10T03:06:54.638Z,102467.13
2022-08-10T03:09:42.156Z,102464.38
2022-08-10T03:12:38.431Z,102471.41
2022-08-10T03:15:27.416Z,102467.78
2022-08-10T03:18:14.158Z,102470.41
2022-08-10T03:21:00.650Z,102465.91
2022-08-10T03:23:47.535Z,102466.03
2022-08-10T03:26:34.412Z,102461.03
2022-08-10T03:29:22.116Z,102463.69
2022-08-10T03:32:09.625Z,102467.34
2022-08-10T03:34:55.608Z,102467.63
2022-08-10T03:37:41.221Z,102465.31
2022-08-10T03:40:45.350Z,102459.19
2022-08-10T03:43:34.190Z,102462.06
2022-08-10T03:46:23.858Z,102458.69
2022-08-10T03:49:10.780Z,102458.78
2022-08-10T03:51:58.460Z,102455.28
2022-08-10T03:54:45.487Z,102456.22
2022-08-10T03:57:31.208Z,102452.06
2022-08-10T04:00:18.822Z,102447.72
2022-08-10T04:03:06.032Z,102448.63
2022-08-10T04:05:51.605Z,102450.41
2022-08-10T04:08:41.178Z,102451.19
2022-08-10T04:11:26.705Z,102451.19
2022-08-10T04:14:38.521Z,102446.91
2022-08-10T04:17:17.554Z,102446.84
2022-08-10T04:20:34.610Z,102445.09
2022-08-10T04:23:24.152Z,102452.94
2022-08-10T04:26:10.805Z,102444.16
2022-08-10T04:28:56.340Z,102445.88
2022-08-10T04:31:45.149Z,102439.72
2022-08-10T04:34:32.581Z,102437.94
2022-08-10T04:37:20.970Z,102447.56
2022-08-10T04:40:25.364Z,102444.06
2022-08-10T04:43:13.774Z,102439.66
2022-08-10T04:46:00.450Z,102437.06
2022-08-10T04:49:01.595Z,102440.47
2022-08-10T04:51:47.903Z,102444.75
2022-08-10T04:54:33.525Z,102449.91
2022-08-10T04:57:18.768Z,102453.34
2022-08-10T05:00:07.471Z,102445.44
2022-08-10T05:03:02.565Z,102451.44
2022-08-10T05:05:48.611Z,102448.78
2022-08-10T05:08:38.415Z,102448.72
2022-08-10T05:11:23.810Z,102446.13
2022-08-10T05:14:09.749Z,102445.16
2022-08-10T05:16:55.180Z,102440.75
2022-08-10T05:20:02.950Z,102444.19
2022-08-10T05:22:46.399Z,102450.28
2022-08-10T05:25:32.994Z,102439.75
2022-08-10T05:28:23.853Z,102445.00
2022-08-10T05:31:22.484Z,102440.59
2022-08-10T05:34:20.507Z,102446.72
2022-08-10T05:37:07.138Z,102447.66
2022-08-10T05:40:13.130Z,102444.16
2022-08-10T05:42:58.654Z,102446.81
2022-08-10T05:46:19.075Z,102445.63
2022-08-10T05:48:59.748Z,102444.03
2022-08-10T05:51:46.528Z,102441.31
2022-08-10T05:54:31.859Z,102440.34
2022-08-10T05:57:19.813Z,102433.34
2022-08-10T06:00:36.844Z,102436.84
2022-08-10T06:03:23.882Z,102433.31
2022-08-10T06:06:10.479Z,102435.94
2022-08-10T06:08:59.220Z,102443.88
2022-08-10T06:12:27.267Z,102442.09
2022-08-10T06:15:05.755Z,102446.56
2022-08-10T06:18:02.084Z,102446.63
2022-08-10T06:20:48.163Z,102451.94
2022-08-10T06:23:34.995Z,102452.06
2022-08-10T06:26:21.771Z,102452.16
2022-08-10T06:29:13.952Z,102446.16
2022-08-10T06:32:01.469Z,102445.31
2022-08-10T06:34:49.750Z,102441.00
2022-08-10T06:37:37.520Z,102443.72
2022-08-10T06:40:27.959Z,102452.50
2022-08-10T06:43:17.272Z,102448.25
2022-08-10T06:46:08.947Z,102449.16
2022-08-10T06:48:59.329Z,102456.25
2022-08-10T06:51:47.506Z,102458.09
2022-08-10T06:54:45.061Z,102455.50
2022-08-10T06:57:33.363Z,102449.50
2022-08-10T07:00:20.192Z,102450.50
2022-08-10T07:03:10.061Z,102448.81
2022-08-10T07:05:56.813Z,102441.03
2022-08-10T07:08:44.041Z,102441.13
2022-08-10T07:11:31.391Z,102444.72
2022-08-10T07:14:18.871Z,102441.31
2022-08-10T07:17:06.072Z,102438.78
2022-08-10T07:19:59.843Z,102436.25
2022-08-10T07:23:01.503Z,102426.75
2022-08-10T07:25:59.312Z,102424.25
2022-08-10T07:28:48.298Z,102426.91
2022-08-10T07:31:57.248Z,102424.38
2022-08-10T07:34:44.603Z,102421.00
2022-08-10T07:37:34.398Z,102429.84
2022-08-10T07:40:22.498Z,102431.69
2022-08-10T07:43:09.945Z,102430.84
2022-08-10T07:45:57.317Z,102437.94
2022-08-10T07:48:47.734Z,102438.00
2022-08-10T07:51:33.602Z,102441.50
2022-08-10T07:54:21.374Z,102439.81
2022-08-10T07:57:12.925Z,102434.66
2022-08-10T08:00:18.098Z,102437.34
2022-08-10T08:03:07.343Z,102440.00
2022-08-10T08:05:57.698Z,102432.09
2022-08-10T08:08:47.942Z,102427.72
2022-08-10T08:11:35.206Z,102434.75
2022-08-10T08:14:22.387Z,102439.16
2022-08-10T08:17:09.292Z,102431.22
2022-08-10T08:19:58.458Z,102429.47
2022-08-10T08:24:10.784Z,102418.91
2022-08-10T08:25:53.583Z,102419.81
2022-08-10T08:28:42.119Z,102427.69
2022-08-10T08:31:28.607Z,102426.75
2022-08-10T08:34:16.260Z,102424.06
2022-08-10T08:37:04.190Z,102422.28
2022-08-10T08:39:50.100Z,102413.47
2022-08-10T08:42:53.504Z,102413.44
2022-08-10T08:46:02.913Z,102416.00
2022-08-10T08:49:06.831Z,102409.81
2022-08-10T08:52:18.124Z,102407.94
2022-08-10T08:56:02.821Z,102405.31
2022-08-10T08:58:58.723Z,102401.66
2022-08-10T09:02:07.684Z,102405.94
2022-08-10T09:05:01.343Z,102406.75
2022-08-10T09:08:25.083Z,102392.66
2022-08-10T09:11:28.658Z,102382.94
2022-08-10T09:14:29.782Z,102384.63
2022-08-10T09:17:32.122Z,102376.63
2022-08-10T09:20:27.007Z,102381.78
2022-08-10T09:24:04.746Z,102382.56
2022-08-10T09:26:49.827Z,102388.66
2022-08-10T09:29:47.151Z,102388.47
2022-08-10T09:36:13.944Z,102388.25
2022-08-10T09:36:34.065Z,102380.78
2022-08-10T09:40:56.954Z,102381.44
2022-08-10T09:43:25.793Z,102373.31
2022-08-10T09:46:33.487Z,102380.22
2022-08-10T09:49:53.886Z,102373.16
2022-08-10T09:52:59.037Z,102379.13
2022-08-10T09:56:18.281Z,102365.72
2022-08-10T09:59:56.722Z,102363.81
2022-08-10T10:02:58.144Z,102377.63
2022-08-10T10:05:53.097Z,102372.03
2022-08-10T10:08:46.432Z,102370.03
2022-08-10T10:12:09.860Z,102368.63
2022-08-10T10:15:25.226Z,102365.63
2022-08-10T10:18:35.389Z,102364.56
2022-08-10T10:21:56.293Z,102357.44
2022-08-10T10:24:48.113Z,102364.47
2022-08-10T10:27:33.344Z,102364.97
2022-08-10T10:30:20.527Z,102358.72
2022-08-10T10:33:27.648Z,102356.06
2022-08-10T10:36:16.649Z,102356.88
2022-08-10T10:39:02.909Z,102348.91
2022-08-10T10:42:04.667Z,102340.72
2022-08-10T10:45:15.888Z,102336.84
2022-08-10T10:48:24.214Z,102339.00
2022-08-10T10:51:21.183Z,102333.66
2022-08-10T10:54:12.545Z,102327.53
2022-08-10T10:57:12.120Z,102318.69
2022-08-10T11:00:11.310Z,102319.22
2022-08-10T11:03:23.756Z,102319.81
2022-08-10T11:06:39.795Z,102306.38
2022-08-10T11:10:05.465Z,102315.78
2022-08-10T11:14:23.598Z,102302.31
2022-08-10T11:16:50.824Z,102304.72
2022-08-10T11:20:01.626Z,102306.59
2022-08-10T11:23:34.729Z,102303.13
2022-08-10T11:26:28.770Z,102295.94
2022-08-10T11:29:37.227Z,102292.44
2022-08-10T11:33:05.212Z,102298.69
2022-08-10T11:35:56.543Z,102301.34
2022-08-10T11:39:13.850Z,102300.50
2022-08-10T11:42:18.536Z,102291.34
2022-08-10T11:45:35.401Z,102288.13
2022-08-10T11:48:54.021Z,102288.66
2022-08-10T11:52:03.783Z,102291.19
2022-08-10T11:54:54.930Z,102296.78
2022-08-10T11:57:54.482Z,102286.59
2022-08-10T12:00:41.788Z,102292.91
2022-08-10T12:03:34.592Z,102290.78
2022-08-10T12:06:53.623Z,102291.31
2022-08-10T12:10:08.525Z,102298.88
2022-08-10T12:12:46.034Z,102291.63
2022-08-10T12:15:48.524Z,102291.31
2022-08-10T12:18:46.337Z,102297.03
2022-08-10T12:21:45.750Z,102305.97
2022-08-10T12:24:48.797Z,102295.34
2022-08-10T12:27:48.826Z,102292.50
2022-08-10T12:30:38.570Z,102287.56
2022-08-10T12:33:29.541Z,102278.38
2022-08-10T12:36:28.410Z,102277.91
2022-08-10T12:39:14.210Z,102272.91
2022-08-10T12:42:38.683Z,102271.25
2022-08-10T12:45:40.452Z,102274.34
2022-08-10T12:48:54.473Z,102268.03
2022-08-10T12:51:49.449Z,102259.78
2022-08-10T12:54:36.988Z,102265.59
2022-08-10T12:57:25.159Z,102263.06
2022-08-10T13:00:17.658Z,102267.81
2022-08-10T13:03:06.613Z,102262.00
2022-08-10T13:06:00.222Z,102262.25
2022-08-10T13:09:07.166Z,102253.03
2022-08-10T13:12:44.565Z,102254.78
2022-08-10T13:15:44.546Z,102253.47
2022-08-10T13:18:33.747Z,102254.88
2022-08-10T13:21:21.258Z,102243.22
2022-08-10T13:24:16.405Z,102244.47
2022-08-10T13:27:26.786Z,102247.31
2022-08-10T13:30:12.556Z,102239.97
2022-08-10T13:32:59.292Z,102236.00
2022-08-10T13:35:47.302Z,102232.31
2022-08-10T13:38:35.013Z,102229.72
2022-08-10T13:41:21.160Z,102218.50
2022-08-10T13:44:09.860Z,102214.88
2022-08-10T13:46:56.876Z,102222.81
2022-08-10T13:49:47.397Z,102213.78
2022-08-10T13:52:34.890Z,102211.63
2022-08-10T13:55:25.154Z,102212.56
2022-08-10T13:58:11.899Z,102214.97
2022-08-10T14:01:09.471Z,102213.69
2022-08-10T14:03:56.125Z,102204.00
2022-08-10T14:06:48.793Z,102204.69
2022-08-10T14:09:34.820Z,102206.66
2022-08-10T14:12:31.872Z,102204.84
2022-08-10T14:15:26.491Z,102200.34
2022-08-10T14:18:14.046Z,102209.34
2022-08-10T14:21:00.248Z,102190.88
2022-08-10T14:23:52.707Z,102187.16
2022-08-10T14:26:40.764Z,102193.47
2022-08-10T14:29:28.648Z,102197.97
2022-08-10T14:32:16.587Z,102194.94
2022-08-10T14:36:19.160Z,102197.19
2022-08-10T14:38:18.425Z,102195.97
2022-08-10T14:41:13.694Z,102188.94
2022-08-10T14:44:20.678Z,102186.56
2022-08-10T14:47:54.097Z,102178.50
2022-08-10T14:50:32.364Z,102183.53
2022-08-10T14:53:27.025Z,102178.25
2022-08-10T14:56:15.782Z,102171.53
2022-08-10T14:59:07.694Z,102176.81
2022-08-10T15:02:38.236Z,102176.41
2022-08-10T15:05:09.085Z,102178.69
2022-08-10T15:07:58.732Z,102174.31
2022-08-10T15:10:51.027Z,102173.66
2022-08-10T15:13:37.006Z,102161.25
2022-08-10T15:16:23.870Z,102170.13
2022-08-10T15:20:01.281Z,102159.25
2022-08-10T15:22:36.609Z,102164.91
2022-08-10T15:25:25.965Z,102157.00
2022-08-10T15:28:16.778Z,102161.47
2022-08-10T15:31:04.284Z,102160.09
2022-08-10T15:34:10.780Z,102157.41
2022-08-10T15:37:36.347Z,102148.00
2022-08-10T15:40:24.544Z,102150.41
2022-08-10T15:43:20.214Z,102152.81
2022-08-10T15:46:29.732Z,102150.03
2022-08-10T15:49:49.901Z,102143.31
2022-08-10T15:53:01.670Z,102136.06
2022-08-10T15:55:58.844Z,102132.91
2022-08-10T15:58:49.421Z,102132.44
2022-08-10T16:02:15.118Z,102131.06
2022-08-10T16:05:17.221Z,102126.63
2022-08-10T16:08:10.173Z,102132.00
2022-08-10T16:11:03.732Z,102136.63
2022-08-10T16:13:51.037Z,102129.19
2022-08-10T16:16:54.282Z,102128.63
2022-08-10T16:19:52.309Z,102123.13
2022-08-10T16:22:38.847Z,102116.44
2022-08-10T16:25:51.363Z,102121.00
2022-08-10T16:28:35.600Z,102122.63
2022-08-10T16:31:26.623Z,102120.53
2022-08-10T16:34:19.237Z,102116.56
2022-08-10T16:37:08.798Z,102110.78
2022-08-10T16:40:01.132Z,102111.63
2022-08-10T16:42:49.444Z,102099.16
2022-08-10T16:45:39.350Z,102098.69
2022-08-10T16:48:49.607Z,102103.41
2022-08-10T16:51:38.305Z,102098.13
2022-08-10T16:54:27.920Z,102102.69
2022-08-10T16:57:16.092Z,102099.63
2022-08-10T17:00:02.453Z,102101.69
2022-08-10T17:02:51.402Z,102104.91
2022-08-10T17:06:10.034Z,102099.53
2022-08-10T17:08:48.197Z,102095.91
2022-08-10T17:11:37.730Z,102104.63
2022-08-10T17:14:28.877Z,102101.38
2022-08-10T17:17:39.085Z,102094.25
2022-08-10T17:20:32.846Z,102093.91
2022-08-10T17:23:20.021Z,102089.06
2022-08-10T17:26:11.060Z,102086.66
2022-08-10T17:29:06.487Z,102085.50
2022-08-10T17:31:57.572Z,102083.44
2022-08-10T17:34:52.829Z,102078.59
2022-08-10T17:37:46.563Z,102075.56
2022-08-10T17:40:34.153Z,102079.94
2022-08-10T17:43:46.510Z,102079.03
2022-08-10T17:46:40.598Z,102076.91
2022-08-10T17:49:27.142Z,102071.53
2022-08-10T17:52:20.691Z,102071.63
2022-08-10T17:55:07.991Z,102064.63
2022-08-10T17:58:01.593Z,102067.00
2022-08-10T18:00:54.917Z,102065.56
2022-08-10T18:03:43.346Z,102072.56
2022-08-10T18:06:29.859Z,102072.41
2022-08-10T18:09:30.984Z,102072.09
2022-08-10T18:12:30.879Z,102079.28
2022-08-10T18:15:24.751Z,102075.47
2022-08-10T18:18:16.772Z,102077.72
2022-08-10T18:21:12.514Z,102076.81
2022-08-10T18:24:15.652Z,102073.91
2022-08-10T18:27:05.127Z,102069.50
2022-08-10T18:29:53.669Z,102071.00
2022-08-10T18:32:45.846Z,102065.66
2022-08-10T18:35:34.944Z,102067.19
2022-08-10T18:38:22.168Z,102072.19
2022-08-10T18:41:22.074Z,102073.19
2022-08-10T18:44:16.672Z,102068.50
2022-08-10T18:47:09.363Z,102065.34
2022-08-10T18:50:00.256Z,102052.25
2022-08-10T18:52:48.952Z,102060.66
2022-08-10T18:55:46.238Z,102056.75
2022-08-10T18:59:03.249Z,102054.81
2022-08-10T19:01:55.008Z,102066.63
2022-08-10T19:05:30.587Z,102065.59
2022-08-10T19:08:49.599Z,102062.91
2022-08-10T19:11:54.812Z,102061.03
2022-08-10T19:14:52.445Z,102070.50
2022-08-10T19:18:03.319Z,102055.94
2022-08-10T19:21:25.648Z,102057.38
2022-08-10T19:24:26.997Z,102064.94
2022-08-10T19:27:52.912Z,102065.28
2022-08-10T19:31:08.659Z,102064.78
2022-08-10T19:34:11.494Z,102061.56
2022-08-10T19:37:32.184Z,102063.63
2022-08-10T19:40:46.554Z,102064.06
2022-08-10T19:44:00.423Z,102060.81
2022-08-10T19:47:07.239Z,102061.94
2022-08-10T19:50:05.453Z,102071.94
2022-08-10T19:53:25.232Z,102072.28
2022-08-10T19:56:34.563Z,102067.22
2022-08-10T20:00:15.247Z,102067.38
2022-08-10T20:03:11.838Z,102071.97
2022-08-10T20:06:20.704Z,102059.78
2022-08-10T20:09:20.328Z,102063.47
2022-08-10T20:12:10.463Z,102065.41
2022-08-10T20:15:10.425Z,102062.06
2022-08-10T20:18:04.359Z,102068.44
2022-08-10T20:21:28.987Z,102068.66
2022-08-10T20:24:28.649Z,102069.78
2022-08-10T20:27:59.857Z,102071.72
2022-08-10T20:30:35.927Z,102069.28
2022-08-10T20:33:33.373Z,102070.31
2022-08-10T20:36:32.748Z,102066.94
2022-08-10T20:39:27.055Z,102071.47
2022-08-10T20:42:22.162Z,102069.84
2022-08-10T20:45:27.241Z,102076.97
2022-08-10T20:48:24.114Z,102080.56
2022-08-10T20:51:19.407Z,102082.38
2022-08-10T20:54:08.941Z,102083.34
2022-08-10T20:57:53.419Z,102084.28
2022-08-10T21:00:42.742Z,102078.22
2022-08-10T21:03:49.418Z,102083.53
2022-08-10T21:07:28.326Z,102079.19
2022-08-10T21:10:42.964Z,102079.22
2022-08-10T21:13:53.221Z,102084.50
2022-08-10T21:16:58.735Z,102088.03
2022-08-10T21:20:08.267Z,102089.78
2022-08-10T21:25:41.673Z,102084.56
2022-08-10T21:26:18.096Z,102081.94
2022-08-10T21:29:21.345Z,102076.69
2022-08-10T21:32:22.467Z,102086.34
2022-08-10T21:35:36.971Z,102084.56
2022-08-10T21:38:36.610Z,102083.69
2022-08-10T21:41:58.842Z,102084.56
2022-08-10T21:45:12.414Z,102089.84
2022-08-10T21:48:33.665Z,102086.31
2022-08-10T21:52:03.892Z,102084.56
2022-08-10T21:55:08.808Z,102079.28
2022-08-10T21:58:27.585Z,102086.22
2022-08-10T22:01:40.352Z,102088.84
2022-08-10T22:04:45.813Z,102094.09
2022-08-10T22:07:51.612Z,102094.09
2022-08-10T22:11:01.650Z,102085.28
2022-08-10T22:14:06.713Z,102092.25
2022-08-10T22:18:03.490Z,102094.84
2022-08-10T22:20:46.542Z,102089.53
2022-08-10T22:24:33.314Z,102101.78
2022-08-10T22:27:48.055Z,102095.59
2022-08-10T22:31:28.723Z,102095.59
2022-08-10T22:34:52.298Z,102090.44
2022-08-10T22:38:07.929Z,102088.59
2022-08-10T22:41:21.206Z,102090.47
2022-08-10T22:44:29.642Z,102093.19
2022-08-10T22:47:39.036Z,102092.31
2022-08-10T22:50:28.309Z,102081.81
2022-08-10T22:53:26.549Z,102079.13
2022-08-10T22:56:39.962Z,102087.81
2022-08-10T22:59:28.302Z,102087.75
2022-08-10T23:02:30.990Z,102087.72
2022-08-10T23:05:24.690Z,102069.22
2022-08-10T23:08:30.648Z,102081.44
2022-08-10T23:11:27.726Z,102081.38
2022-08-10T23:14:19.545Z,102078.66
2022-08-10T23:18:01.090Z,102078.59
2022-08-10T23:20:41.505Z,102072.38
2022-08-10T23:23:30.041Z,102079.34
2022-08-10T23:26:24.344Z,102076.63
2022-08-10T23:29:14.750Z,102066.97
2022-08-10T23:32:07.224Z,102071.31
2022-08-10T23:36:30.365Z,102072.19
2022-08-10T23:38:01.931Z,102080.09
2022-08-10T23:40:51.389Z,102080.94
2022-08-10T23:44:02.935Z,102074.75
2022-08-10T23:46:47.514Z,102075.56
2022-08-10T23:49:35.760Z,102079.06
2022-08-10T23:52:25.243Z,102075.56
2022-08-10T23:55:19.582Z,102069.31
2022-08-10T23:58:09.793Z,102061.41
